createdAt,value
2022-11-08T00:01:32.113Z,92.55
2022-11-08T00:04:02.265Z,91.67
2022-11-08T00:06:47.792Z,91.71
2022-11-08T00:09:33.410Z,92.00
2022-11-08T00:12:18.864Z,92.13
2022-11-08T00:14:47.310Z,92.67
2022-11-08T00:17:15.536Z,92.86
2022-11-08T00:19:45.505Z,92.51
2022-11-08T00:22:14.161Z,92.64
2022-11-08T00:24:42.649Z,92.75
2022-11-08T00:27:12.601Z,92.52
2022-11-08T00:29:40.233Z,93.44
2022-11-08T00:32:12.025Z,93.00
2022-11-08T00:34:39.864Z,93.73
2022-11-08T00:37:09.097Z,93.48
2022-11-08T00:39:36.860Z,93.44
2022-11-08T00:42:04.633Z,93.43
2022-11-08T00:44:32.309Z,93.42
2022-11-08T00:46:59.911Z,93.07
2022-11-08T00:49:27.587Z,93.62
2022-11-08T00:51:55.142Z,93.25
2022-11-08T00:54:24.288Z,93.37
2022-11-08T00:56:51.885Z,93.66
2022-11-08T00:59:20.696Z,93.83
2022-11-08T01:01:49.354Z,94.19
2022-11-08T01:04:19.517Z,93.72
2022-11-08T01:06:47.356Z,93.92
2022-11-08T01:09:16.412Z,93.52
2022-11-08T01:11:47.669Z,93.44
2022-11-08T01:14:16.182Z,93.36
2022-11-08T01:16:45.188Z,93.35
2022-11-08T01:19:12.955Z,93.05
2022-11-08T01:21:40.513Z,93.29
2022-11-08T01:24:08.627Z,93.70
2022-11-08T01:26:36.228Z,93.18
2022-11-08T01:29:05.153Z,93.47
2022-11-08T01:31:33.844Z,93.74
2022-11-08T01:34:02.003Z,94.00
2022-11-08T01:36:30.537Z,93.51
2022-11-08T01:38:58.338Z,93.93
2022-11-08T01:41:28.207Z,93.30
2022-11-08T01:43:57.143Z,93.73
2022-11-08T01:46:36.155Z,93.24
2022-11-08T01:49:32.850Z,93.54
2022-11-08T01:52:11.081Z,93.62
2022-11-08T01:54:45.156Z,93.29
2022-11-08T01:57:17.473Z,93.13
2022-11-08T01:59:48.845Z,93.22
2022-11-08T02:02:19.553Z,92.96
2022-11-08T02:04:48.331Z,93.28
2022-11-08T02:07:18.113Z,93.01
2022-11-08T02:09:48.070Z,92.36
2022-11-08T02:12:17.939Z,92.44
2022-11-08T02:14:45.573Z,92.73
2022-11-08T02:17:14.405Z,92.69
2022-11-08T02:19:47.491Z,92.40
2022-11-08T02:22:22.191Z,92.24
2022-11-08T02:24:51.212Z,92.13
2022-11-08T02:27:18.953Z,91.89
2022-11-08T02:29:46.827Z,92.04
2022-11-08T02:32:14.399Z,92.08
2022-11-08T02:34:45.119Z,92.86
2022-11-08T02:37:15.404Z,93.01
2022-11-08T02:39:43.503Z,92.94
2022-11-08T02:42:16.554Z,93.24
2022-11-08T02:44:44.219Z,93.84
2022-11-08T02:47:11.928Z,93.50
2022-11-08T02:49:39.616Z,93.22
2022-11-08T02:52:07.673Z,93.29
2022-11-08T02:54:35.686Z,93.26
2022-11-08T02:57:03.243Z,93.02
2022-11-08T02:59:32.141Z,93.32
2022-11-08T03:01:59.929Z,93.08
2022-11-08T03:04:27.637Z,93.01
2022-11-08T03:06:56.196Z,93.35
2022-11-08T03:09:24.028Z,93.40
2022-11-08T03:11:51.569Z,93.08
2022-11-08T03:14:19.185Z,93.86
2022-11-08T03:16:48.069Z,93.88
2022-11-08T03:19:15.837Z,94.21
2022-11-08T03:21:43.385Z,93.83
2022-11-08T03:24:12.289Z,94.11
2022-11-08T03:26:39.923Z,94.18
2022-11-08T03:29:07.621Z,94.33
2022-11-08T03:31:35.185Z,94.02
2022-11-08T03:34:04.083Z,94.01
2022-11-08T03:36:31.811Z,94.16
2022-11-08T03:38:59.355Z,94.25
2022-11-08T03:41:26.940Z,93.75
2022-11-08T03:43:54.556Z,94.59
2022-11-08T03:46:22.193Z,94.36
2022-11-08T03:48:49.765Z,93.57
2022-11-08T03:51:18.956Z,93.65
2022-11-08T03:53:46.583Z,93.25
2022-11-08T03:56:14.162Z,93.41
2022-11-08T03:58:41.705Z,93.46
2022-11-08T04:01:09.475Z,93.54
2022-11-08T04:03:37.079Z,93.88
2022-11-08T04:06:04.985Z,93.73
2022-11-08T04:08:33.900Z,94.16
2022-11-08T04:11:22.374Z,93.75
2022-11-08T04:14:04.142Z,93.72
2022-11-08T04:16:32.579Z,93.88
2022-11-08T04:19:18.317Z,94.00
2022-11-08T04:21:47.558Z,93.93
2022-11-08T04:24:17.677Z,94.11
2022-11-08T04:26:46.453Z,94.07
2022-11-08T04:29:14.253Z,94.20
2022-11-08T04:31:43.257Z,94.36
2022-11-08T04:34:10.985Z,94.60
2022-11-08T04:36:39.588Z,94.38
2022-11-08T04:39:07.300Z,94.71
2022-11-08T04:41:36.281Z,94.24
2022-11-08T04:44:03.962Z,94.09
2022-11-08T04:46:31.716Z,94.21
2022-11-08T04:49:00.785Z,93.72
2022-11-08T04:51:31.147Z,93.76
2022-11-08T04:54:00.605Z,94.06
2022-11-08T04:56:30.282Z,93.97
2022-11-08T04:59:01.668Z,94.33
2022-11-08T05:01:32.503Z,93.92
2022-11-08T05:04:00.144Z,94.85
2022-11-08T05:06:29.568Z,94.57
2022-11-08T05:08:58.716Z,94.45
2022-11-08T05:11:28.541Z,94.96
2022-11-08T05:13:56.636Z,94.97
2022-11-08T05:16:27.576Z,94.98
2022-11-08T05:18:55.540Z,94.85
2022-11-08T05:21:42.090Z,93.92
2022-11-08T05:24:12.525Z,93.78
2022-11-08T05:26:43.093Z,93.69
2022-11-08T05:29:11.739Z,94.01
2022-11-08T05:31:41.054Z,94.38
2022-11-08T05:34:08.609Z,94.44
2022-11-08T05:36:36.285Z,94.79
2022-11-08T05:39:04.600Z,94.43
2022-11-08T05:41:32.149Z,94.75
2022-11-08T05:43:59.733Z,93.85
2022-11-08T05:46:27.427Z,93.87
2022-11-08T05:48:56.484Z,93.38
2022-11-08T05:51:24.069Z,92.92
2022-11-08T05:53:51.690Z,93.31
2022-11-08T05:56:19.669Z,93.29
2022-11-08T05:58:47.509Z,93.35
2022-11-08T06:01:17.637Z,93.97
2022-11-08T06:03:45.960Z,94.12
2022-11-08T06:06:16.870Z,93.13
2022-11-08T06:08:48.980Z,93.09
2022-11-08T06:11:21.312Z,93.50
2022-11-08T06:13:49.398Z,93.62
2022-11-08T06:16:18.810Z,94.32
2022-11-08T06:18:47.297Z,94.01
2022-11-08T06:21:18.992Z,93.52
2022-11-08T06:23:59.250Z,93.99
2022-11-08T06:26:26.845Z,93.18
2022-11-08T06:28:54.401Z,93.22
2022-11-08T06:31:22.211Z,93.33
2022-11-08T06:33:50.259Z,93.64
2022-11-08T06:36:21.062Z,93.01
2022-11-08T06:38:48.803Z,92.29
2022-11-08T06:41:20.360Z,92.56
2022-11-08T06:43:48.261Z,92.55
2022-11-08T06:46:16.665Z,92.59
2022-11-08T06:48:44.277Z,92.63
2022-11-08T06:51:12.063Z,92.64
2022-11-08T06:53:41.077Z,93.34
2022-11-08T06:56:09.225Z,93.42
2022-11-08T06:58:37.362Z,92.95
2022-11-08T07:01:06.092Z,92.84
2022-11-08T07:03:34.277Z,92.57
2022-11-08T07:06:02.822Z,92.51
2022-11-08T07:08:30.492Z,92.47
2022-11-08T07:10:59.580Z,93.26
2022-11-08T07:13:27.287Z,91.86
2022-11-08T07:15:58.813Z,90.75
2022-11-08T07:18:26.911Z,91.65
2022-11-08T07:20:54.564Z,91.38
2022-11-08T07:23:23.756Z,91.74
2022-11-08T07:25:51.551Z,93.68
2022-11-08T07:28:21.385Z,91.55
2022-11-08T07:30:50.001Z,91.96
2022-11-08T07:33:18.437Z,90.41
2022-11-08T07:35:48.057Z,91.13
2022-11-08T07:38:15.846Z,90.96
2022-11-08T07:40:44.748Z,90.75
2022-11-08T07:43:13.240Z,91.15
2022-11-08T07:45:43.105Z,91.28
2022-11-08T07:48:13.431Z,90.01
2022-11-08T07:50:41.869Z,90.38
2022-11-08T07:53:10.202Z,89.66
2022-11-08T07:55:38.462Z,88.99
2022-11-08T07:58:06.503Z,88.12
2022-11-08T08:00:37.113Z,89.80
2022-11-08T08:03:07.984Z,89.53
2022-11-08T08:05:37.672Z,88.32
2022-11-08T08:08:06.217Z,89.44
2022-11-08T08:10:35.284Z,89.74
2022-11-08T08:13:03.029Z,89.03
2022-11-08T08:15:30.985Z,87.97
2022-11-08T08:18:00.892Z,89.00
2022-11-08T08:20:30.633Z,88.03
2022-11-08T08:22:58.545Z,88.08
2022-11-08T08:25:28.434Z,88.10
2022-11-08T08:27:57.698Z,89.17
2022-11-08T08:30:25.962Z,89.81
2022-11-08T08:33:26.206Z,87.68
2022-11-08T08:35:50.480Z,87.27
2022-11-08T08:38:18.144Z,87.47
2022-11-08T08:40:45.763Z,85.65
2022-11-08T08:43:13.413Z,87.58
2022-11-08T08:45:41.866Z,86.49
2022-11-08T08:48:09.535Z,88.52
2022-11-08T08:50:37.530Z,87.10
2022-11-08T08:53:07.324Z,88.79
2022-11-08T08:55:36.371Z,87.44
2022-11-08T08:58:04.634Z,85.03
2022-11-08T09:03:20.468Z,85.03
2022-11-08T09:05:48.613Z,87.06
2022-11-08T09:08:18.547Z,87.55
2022-11-08T09:10:47.259Z,86.28
2022-11-08T09:13:14.986Z,86.68
2022-11-08T09:15:42.764Z,89.27
2022-11-08T09:18:10.843Z,87.81
2022-11-08T09:20:39.336Z,85.57
2022-11-08T09:23:06.881Z,86.28
2022-11-08T09:25:35.953Z,85.70
2022-11-08T09:28:03.686Z,87.21
2022-11-08T09:30:31.558Z,86.59
2022-11-08T09:33:01.330Z,86.22
2022-11-08T09:35:30.626Z,85.53
2022-11-08T09:37:58.837Z,85.61
2022-11-08T09:40:32.464Z,85.22
2022-11-08T09:43:15.028Z,83.33
2022-11-08T09:45:46.398Z,84.07
2022-11-08T09:48:23.486Z,81.76
2022-11-08T09:50:54.591Z,80.27
2022-11-08T09:53:34.714Z,81.91
2022-11-08T09:56:08.081Z,78.29
2022-11-08T09:58:41.261Z,77.43
2022-11-08T10:01:11.112Z,78.74
2022-11-08T10:03:39.015Z,72.66
2022-11-08T10:06:23.394Z,75.05
2022-11-08T10:09:01.233Z,69.91
2022-11-08T10:11:40.846Z,66.65
2022-11-08T10:14:33.985Z,67.07
2022-11-08T10:17:22.314Z,67.10
2022-11-08T10:20:06.728Z,66.11
2022-11-08T10:22:46.981Z,67.17
2022-11-08T10:25:21.043Z,67.02
2022-11-08T10:27:48.600Z,65.67
2022-11-08T10:30:21.423Z,65.55
2022-11-08T10:32:53.146Z,66.69
2022-11-08T10:35:26.516Z,66.96
2022-11-08T10:37:56.673Z,65.86
2022-11-08T10:40:37.668Z,66.54
2022-11-08T10:43:11.258Z,68.01
2022-11-08T10:45:41.024Z,65.18
2022-11-08T10:48:11.719Z,63.64
2022-11-08T10:50:44.995Z,64.85
2022-11-08T10:53:19.104Z,64.50
2022-11-08T10:55:52.648Z,62.73
2022-11-08T10:58:30.438Z,63.62
2022-11-08T11:01:06.052Z,63.35
2022-11-08T11:03:34.033Z,62.69
2022-11-08T11:06:04.274Z,65.59
2022-11-08T11:08:32.673Z,63.61
2022-11-08T11:11:23.407Z,65.42
2022-11-08T11:14:09.958Z,65.91
2022-11-08T11:16:53.734Z,68.85
2022-11-08T11:19:21.612Z,69.11
2022-11-08T11:21:55.534Z,70.01
2022-11-08T11:24:23.455Z,69.75
2022-11-08T11:27:02.008Z,67.66
2022-11-08T11:29:31.380Z,67.33
2022-11-08T11:32:24.313Z,64.75
2022-11-08T11:34:55.846Z,63.44
2022-11-08T11:37:30.287Z,62.92
2022-11-08T11:40:20.511Z,65.19
2022-11-08T11:42:57.638Z,67.69
2022-11-08T11:45:31.494Z,68.06
2022-11-08T11:48:06.781Z,68.77
2022-11-08T11:50:36.074Z,66.14
2022-11-08T11:53:06.460Z,62.64
2022-11-08T11:55:52.456Z,60.25
2022-11-08T11:58:34.344Z,60.76
2022-11-08T12:01:14.676Z,61.91
2022-11-08T12:04:14.817Z,61.33
2022-11-08T12:06:50.398Z,62.84
2022-11-08T12:09:34.648Z,62.51
2022-11-08T12:12:16.902Z,63.20
2022-11-08T12:14:56.792Z,62.09
2022-11-08T12:17:59.078Z,60.90
2022-11-08T12:20:41.250Z,59.39
2022-11-08T12:23:27.418Z,60.73
2022-11-08T12:26:03.209Z,60.70
2022-11-08T12:28:47.077Z,60.18
2022-11-08T12:31:26.276Z,62.07
2022-11-08T12:34:07.828Z,62.12
2022-11-08T12:36:48.286Z,62.26
2022-11-08T12:39:26.291Z,63.09
2022-11-08T12:42:08.965Z,64.96
2022-11-08T12:44:51.269Z,63.88
2022-11-08T12:47:29.244Z,63.94
2022-11-08T12:50:11.360Z,62.55
2022-11-08T12:52:54.128Z,59.88
2022-11-08T12:55:26.683Z,58.86
2022-11-08T12:57:57.122Z,58.43
2022-11-08T13:00:25.049Z,59.66
2022-11-08T13:03:05.374Z,59.73
2022-11-08T13:05:38.042Z,59.52
2022-11-08T13:08:14.161Z,60.94
2022-11-08T13:10:54.205Z,61.70
2022-11-08T13:13:32.599Z,62.69
2022-11-08T13:16:14.340Z,62.12
2022-11-08T13:18:47.095Z,61.91
2022-11-08T13:21:38.997Z,61.19
2022-11-08T13:24:44.363Z,59.12
2022-11-08T13:27:31.244Z,57.11
2022-11-08T13:30:05.495Z,57.08
2022-11-08T13:32:53.625Z,56.65
2022-11-08T13:35:26.725Z,56.45
2022-11-08T13:38:04.625Z,55.44
2022-11-08T13:40:45.340Z,56.29
2022-11-08T13:43:32.116Z,56.05
2022-11-08T13:46:50.010Z,56.83
2022-11-08T13:49:20.048Z,58.52
2022-11-08T13:51:47.888Z,59.01
2022-11-08T13:54:55.195Z,58.83
2022-11-08T13:57:57.772Z,58.25
2022-11-08T14:00:44.260Z,57.83
2022-11-08T14:03:50.331Z,59.50
2022-11-08T14:06:27.713Z,60.00
2022-11-08T14:09:04.123Z,59.14
2022-11-08T14:11:43.052Z,59.71
2022-11-08T14:14:30.970Z,60.04
2022-11-08T14:17:10.132Z,59.92
2022-11-08T14:19:39.887Z,60.34
2022-11-08T14:22:16.596Z,60.61
2022-11-08T14:24:44.899Z,61.24
2022-11-08T14:27:14.704Z,62.05
2022-11-08T14:29:43.408Z,61.88
2022-11-08T14:32:19.170Z,62.15
2022-11-08T14:34:47.843Z,62.15
2022-11-08T14:37:22.706Z,62.42
2022-11-08T14:39:51.581Z,62.53
2022-11-08T14:42:23.241Z,63.31
2022-11-08T14:44:54.759Z,62.93
2022-11-08T14:47:28.565Z,62.91
2022-11-08T14:49:56.102Z,62.68
2022-11-08T14:52:29.371Z,62.46
2022-11-08T14:55:04.991Z,62.69
2022-11-08T14:57:35.422Z,62.60
2022-11-08T15:00:07.314Z,62.46
2022-11-08T15:02:35.068Z,63.05
2022-11-08T15:05:02.731Z,63.53
2022-11-08T15:07:31.638Z,63.60
2022-11-08T15:10:09.404Z,64.40
2022-11-08T15:12:42.899Z,64.19
2022-11-08T15:15:22.027Z,63.79
2022-11-08T15:18:09.997Z,63.60
2022-11-08T15:20:38.398Z,65.20
2022-11-08T15:23:24.870Z,65.24
2022-11-08T15:25:57.345Z,67.31
2022-11-08T15:28:26.758Z,67.03
2022-11-08T15:30:58.994Z,66.27
2022-11-08T15:33:30.299Z,66.67
2022-11-08T15:36:00.199Z,67.18
2022-11-08T15:38:35.065Z,67.87
2022-11-08T15:41:05.526Z,69.03
2022-11-08T15:43:42.461Z,69.69
2022-11-08T15:46:29.180Z,69.45
2022-11-08T15:48:58.519Z,68.76
2022-11-08T15:51:26.180Z,69.77
2022-11-08T15:53:55.109Z,69.76
2022-11-08T15:56:22.846Z,70.13
2022-11-08T15:58:50.548Z,69.93
2022-11-08T16:01:20.400Z,70.05
2022-11-08T16:03:48.508Z,69.71
2022-11-08T16:06:16.233Z,70.82
2022-11-08T16:08:43.809Z,70.73
2022-11-08T16:11:19.440Z,71.99
2022-11-08T16:13:48.984Z,71.67
2022-11-08T16:16:18.194Z,70.20
2022-11-08T16:18:46.005Z,70.41
2022-11-08T16:21:14.520Z,71.13
2022-11-08T16:23:42.946Z,71.30
2022-11-08T16:26:16.962Z,71.71
2022-11-08T16:28:45.274Z,71.84
2022-11-08T16:31:15.071Z,71.85
2022-11-08T16:33:44.339Z,71.88
2022-11-08T16:36:18.841Z,72.15
2022-11-08T16:38:51.289Z,72.98
2022-11-08T16:41:21.114Z,73.01
2022-11-08T16:43:49.018Z,73.00
2022-11-08T16:46:17.561Z,72.83
2022-11-08T16:48:47.336Z,74.71
2022-11-08T16:51:18.689Z,73.92
2022-11-08T16:53:46.436Z,72.73
2022-11-08T16:56:14.264Z,73.87
2022-11-08T16:58:43.778Z,74.24
2022-11-08T17:01:15.855Z,74.92
2022-11-08T17:03:43.658Z,75.88
2022-11-08T17:06:17.932Z,76.73
2022-11-08T17:08:45.709Z,76.22
2022-11-08T17:11:17.818Z,74.81
2022-11-08T17:13:46.771Z,74.95
2022-11-08T17:16:15.461Z,74.79
2022-11-08T17:18:43.160Z,76.35
2022-11-08T17:24:01.109Z,76.71
2022-11-08T17:26:28.643Z,74.63
2022-11-08T17:28:58.657Z,75.71
2022-11-08T17:31:26.251Z,78.76
2022-11-08T17:33:54.891Z,77.60
2022-11-08T17:36:22.565Z,77.70
2022-11-08T17:38:50.184Z,76.20
2022-11-08T17:41:17.848Z,76.72
2022-11-08T17:43:45.576Z,77.43
2022-11-08T17:46:15.539Z,76.47
2022-11-08T17:48:43.134Z,77.47
2022-11-08T17:51:11.965Z,77.28
2022-11-08T17:53:39.604Z,77.66
2022-11-08T17:56:07.959Z,77.83
2022-11-08T17:58:35.697Z,77.51
2022-11-08T18:01:07.915Z,76.70
2022-11-08T18:03:37.190Z,77.66
2022-11-08T18:06:06.937Z,77.93
2022-11-08T18:08:35.807Z,77.97
2022-11-08T18:11:04.012Z,78.33
2022-11-08T18:13:32.538Z,78.40
2022-11-08T18:16:07.054Z,78.63
2022-11-08T18:18:35.781Z,79.16
2022-11-08T18:21:05.319Z,79.94
2022-11-08T18:23:32.902Z,78.51
2022-11-08T18:26:00.598Z,78.26
2022-11-08T18:28:28.524Z,76.93
2022-11-08T18:30:56.097Z,79.36
2022-11-08T18:33:23.778Z,77.75
2022-11-08T18:35:51.334Z,77.78
2022-11-08T18:38:21.281Z,78.07
2022-11-08T18:40:51.107Z,77.49
2022-11-08T18:43:19.959Z,77.64
2022-11-08T18:45:47.760Z,77.19
2022-11-08T18:48:15.330Z,77.63
2022-11-08T18:50:43.065Z,77.10
2022-11-08T18:53:10.787Z,78.40
2022-11-08T18:55:39.844Z,78.48
2022-11-08T18:58:08.287Z,78.05
2022-11-08T19:00:36.069Z,79.06
2022-11-08T19:03:03.783Z,78.16
2022-11-08T19:05:31.545Z,78.20
2022-11-08T19:07:59.291Z,78.01
2022-11-08T19:10:26.969Z,77.56
2022-11-08T19:12:56.033Z,77.92
2022-11-08T19:15:27.359Z,78.31
2022-11-08T19:17:55.084Z,77.14
2022-11-08T19:20:23.927Z,78.18
2022-11-08T19:22:54.722Z,77.97
2022-11-08T19:25:22.449Z,78.62
2022-11-08T19:27:50.112Z,78.23
2022-11-08T19:30:19.580Z,77.80
2022-11-08T19:32:47.431Z,77.65
2022-11-08T19:35:15.064Z,77.75
2022-11-08T19:37:42.814Z,77.66
2022-11-08T19:40:11.668Z,78.45
2022-11-08T19:42:39.566Z,77.84
2022-11-08T19:45:08.730Z,77.46
2022-11-08T19:47:37.748Z,76.97
2022-11-08T19:50:06.212Z,77.21
2022-11-08T19:52:33.870Z,76.71
2022-11-08T19:55:01.655Z,76.71
2022-11-08T19:57:29.964Z,76.19
2022-11-08T19:59:57.647Z,75.55
2022-11-08T20:02:25.397Z,77.30
2022-11-08T20:04:54.502Z,76.57
2022-11-08T20:07:22.264Z,73.91
2022-11-08T20:09:50.060Z,70.24
2022-11-08T20:12:17.828Z,68.10
2022-11-08T20:14:45.579Z,65.61
2022-11-08T20:17:13.316Z,65.10
2022-11-08T20:19:41.191Z,65.44
2022-11-08T20:22:10.402Z,65.97
2022-11-08T20:24:38.094Z,65.59
2022-11-08T20:27:05.888Z,64.98
2022-11-08T20:29:33.806Z,64.87
2022-11-08T20:32:02.397Z,64.31
2022-11-08T20:34:30.011Z,64.39
2022-11-08T20:36:57.857Z,64.93
2022-11-08T20:39:26.787Z,66.44
2022-11-08T20:41:54.444Z,66.61
2022-11-08T20:44:23.990Z,66.37
2022-11-08T20:46:52.078Z,66.69
2022-11-08T20:49:20.257Z,66.11
2022-11-08T20:51:48.858Z,66.34
2022-11-08T20:54:16.958Z,66.34
2022-11-08T20:56:45.914Z,66.66
2022-11-08T20:59:15.060Z,67.21
2022-11-08T21:01:42.697Z,67.20
2022-11-08T21:04:10.354Z,67.73
2022-11-08T21:06:38.147Z,68.92
2022-11-08T21:09:32.421Z,69.42
2022-11-08T21:11:55.897Z,70.62
2022-11-08T21:14:24.696Z,72.40
2022-11-08T21:17:20.289Z,73.79
2022-11-08T21:19:40.066Z,75.04
2022-11-08T21:22:16.853Z,75.93
2022-11-08T21:24:46.032Z,76.44
2022-11-08T21:27:15.397Z,77.20
2022-11-08T21:29:43.317Z,77.48
2022-11-08T21:32:10.910Z,77.64
2022-11-08T21:34:39.581Z,77.92
2022-11-08T21:37:09.869Z,77.79
2022-11-08T21:39:37.424Z,77.67
2022-11-08T21:42:04.982Z,77.04
2022-11-08T21:44:33.880Z,77.61
2022-11-08T21:47:01.434Z,77.06
2022-11-08T21:49:29.025Z,77.68
2022-11-08T21:51:56.619Z,77.72
2022-11-08T21:54:24.172Z,77.69
2022-11-08T21:56:51.734Z,77.91
2022-11-08T21:59:19.320Z,78.76
2022-11-08T22:01:48.258Z,79.49
2022-11-08T22:04:15.826Z,78.99
2022-11-08T22:06:47.478Z,79.19
2022-11-08T22:09:15.718Z,79.60
2022-11-08T22:11:43.332Z,79.12
2022-11-08T22:14:10.935Z,78.66
2022-11-08T22:16:38.646Z,79.34
2022-11-08T22:19:08.258Z,80.02
2022-11-08T22:21:39.817Z,80.66
2022-11-08T22:24:09.436Z,81.16
2022-11-08T22:26:37.167Z,81.56
2022-11-08T22:29:05.145Z,80.77
2022-11-08T22:31:33.295Z,83.01
2022-11-08T22:34:01.203Z,81.69
2022-11-08T22:36:30.153Z,81.04
2022-11-08T22:38:58.098Z,81.46
2022-11-08T22:41:25.782Z,81.70
2022-11-08T22:43:53.418Z,81.15
2022-11-08T22:46:21.285Z,82.52
2022-11-08T22:48:49.304Z,82.52
2022-11-08T22:51:17.198Z,81.48
2022-11-08T22:53:46.159Z,80.94
2022-11-08T22:56:13.963Z,81.22
2022-11-08T22:58:41.592Z,81.25
2022-11-08T23:01:11.968Z,81.78
2022-11-08T23:03:39.640Z,81.07
2022-11-08T23:06:07.302Z,81.11
2022-11-08T23:08:34.929Z,81.99
2022-11-08T23:11:21.743Z,82.75
2022-11-08T23:14:07.052Z,81.58
2022-11-08T23:16:37.373Z,81.76
2022-11-08T23:19:24.187Z,82.74
2022-11-08T23:22:09.637Z,82.49
2022-11-08T23:24:38.635Z,81.44
2022-11-08T23:27:25.412Z,82.25
2022-11-08T23:30:10.613Z,81.36
2022-11-08T23:32:43.004Z,81.96
2022-11-08T23:35:10.788Z,82.13
2022-11-08T23:37:38.379Z,81.93
2022-11-08T23:40:25.329Z,82.29
2022-11-08T23:43:22.683Z,83.76
2022-11-08T23:45:50.551Z,84.09
2022-11-08T23:48:18.253Z,82.82
2022-11-08T23:50:53.144Z,83.49
2022-11-08T23:53:22.122Z,85.37
2022-11-08T23:55:49.910Z,85.50
2022-11-08T23:58:19.214Z,86.23
